sensor_id;sensor_type;location;lat;lon;timestamp;P1;durP1;ratioP1;P2;durP2;ratioP2
43710;SDS011;29309;42.682;23.372;2022-07-06T00:01:21;11.70;;;8.13;;
43710;SDS011;29309;42.682;23.372;2022-07-06T00:03:47;13.02;;;8.65;;
43710;SDS011;29309;42.682;23.372;2022-07-06T00:06:12;13.80;;;8.80;;
43710;SDS011;29309;42.682;23.372;2022-07-06T00:08:38;12.75;;;8.40;;
43710;SDS011;29309;42.682;23.372;2022-07-06T00:11:04;12.80;;;8.43;;
43710;SDS011;29309;42.682;23.372;2022-07-06T00:13:30;11.50;;;8.55;;
43710;SDS011;29309;42.682;23.372;2022-07-06T00:15:56;12.52;;;9.70;;
43710;SDS011;29309;42.682;23.372;2022-07-06T00:18:21;16.30;;;9.13;;
43710;SDS011;29309;42.682;23.372;2022-07-06T00:20:47;14.05;;;8.70;;
43710;SDS011;29309;42.682;23.372;2022-07-06T00:23:12;13.45;;;8.18;;
43710;SDS011;29309;42.682;23.372;2022-07-06T00:25:38;13.02;;;8.82;;
43710;SDS011;29309;42.682;23.372;2022-07-06T00:28:04;11.30;;;8.57;;
43710;SDS011;29309;42.682;23.372;2022-07-06T00:30:29;13.65;;;8.50;;
43710;SDS011;29309;42.682;23.372;2022-07-06T00:32:55;14.93;;;9.27;;
43710;SDS011;29309;42.682;23.372;2022-07-06T00:35:20;13.05;;;7.88;;
43710;SDS011;29309;42.682;23.372;2022-07-06T00:37:46;11.15;;;7.63;;
43710;SDS011;29309;42.682;23.372;2022-07-06T00:40:12;12.10;;;8.30;;
43710;SDS011;29309;42.682;23.372;2022-07-06T00:42:44;11.80;;;8.50;;
43710;SDS011;29309;42.682;23.372;2022-07-06T00:45:12;9.65;;;7.75;;
43710;SDS011;29309;42.682;23.372;2022-07-06T00:47:39;13.70;;;9.32;;
43710;SDS011;29309;42.682;23.372;2022-07-06T00:50:06;13.63;;;8.73;;
43710;SDS011;29309;42.682;23.372;2022-07-06T00:52:43;12.68;;;8.48;;
43710;SDS011;29309;42.682;23.372;2022-07-06T00:55:33;14.38;;;8.93;;
43710;SDS011;29309;42.682;23.372;2022-07-06T00:58:06;13.10;;;8.32;;
43710;SDS011;29309;42.682;23.372;2022-07-06T01:00:33;12.10;;;8.27;;
43710;SDS011;29309;42.682;23.372;2022-07-06T01:02:59;14.48;;;9.50;;
43710;SDS011;29309;42.682;23.372;2022-07-06T01:05:24;10.82;;;8.30;;
43710;SDS011;29309;42.682;23.372;2022-07-06T01:07:51;10.98;;;8.00;;
43710;SDS011;29309;42.682;23.372;2022-07-06T01:10:17;13.02;;;8.63;;
43710;SDS011;29309;42.682;23.372;2022-07-06T01:12:44;13.10;;;8.85;;
43710;SDS011;29309;42.682;23.372;2022-07-06T01:15:12;13.55;;;10.15;;
43710;SDS011;29309;42.682;23.372;2022-07-06T01:17:40;15.50;;;9.73;;
43710;SDS011;29309;42.682;23.372;2022-07-06T01:20:17;21.98;;;11.05;;
43710;SDS011;29309;42.682;23.372;2022-07-06T01:22:44;16.30;;;9.75;;
43710;SDS011;29309;42.682;23.372;2022-07-06T01:25:11;17.27;;;10.50;;
43710;SDS011;29309;42.682;23.372;2022-07-06T01:27:37;15.23;;;10.52;;
43710;SDS011;29309;42.682;23.372;2022-07-06T01:30:05;15.48;;;10.73;;
43710;SDS011;29309;42.682;23.372;2022-07-06T01:32:32;14.57;;;9.52;;
43710;SDS011;29309;42.682;23.372;2022-07-06T01:35:00;14.02;;;10.75;;
43710;SDS011;29309;42.682;23.372;2022-07-06T01:37:25;16.50;;;11.43;;
43710;SDS011;29309;42.682;23.372;2022-07-06T01:39:51;14.93;;;12.00;;
43710;SDS011;29309;42.682;23.372;2022-07-06T01:42:16;20.35;;;13.88;;
43710;SDS011;29309;42.682;23.372;2022-07-06T01:44:42;17.80;;;13.50;;
43710;SDS011;29309;42.682;23.372;2022-07-06T01:47:09;17.40;;;13.13;;
43710;SDS011;29309;42.682;23.372;2022-07-06T01:49:35;18.95;;;13.63;;
43710;SDS011;29309;42.682;23.372;2022-07-06T01:52:00;21.30;;;13.00;;
43710;SDS011;29309;42.682;23.372;2022-07-06T01:54:25;17.98;;;14.20;;
43710;SDS011;29309;42.682;23.372;2022-07-06T01:56:51;25.23;;;14.10;;
43710;SDS011;29309;42.682;23.372;2022-07-06T01:59:17;21.02;;;14.63;;
43710;SDS011;29309;42.682;23.372;2022-07-06T02:01:42;21.48;;;13.98;;
43710;SDS011;29309;42.682;23.372;2022-07-06T02:04:08;17.13;;;12.18;;
43710;SDS011;29309;42.682;23.372;2022-07-06T02:06:33;20.10;;;13.75;;
43710;SDS011;29309;42.682;23.372;2022-07-06T02:08:59;16.65;;;11.60;;
43710;SDS011;29309;42.682;23.372;2022-07-06T02:11:24;15.95;;;10.90;;
43710;SDS011;29309;42.682;23.372;2022-07-06T02:13:50;20.85;;;11.43;;
43710;SDS011;29309;42.682;23.372;2022-07-06T02:16:15;17.67;;;12.18;;
43710;SDS011;29309;42.682;23.372;2022-07-06T02:18:40;19.30;;;11.80;;
43710;SDS011;29309;42.682;23.372;2022-07-06T02:21:06;14.63;;;10.73;;
43710;SDS011;29309;42.682;23.372;2022-07-06T02:23:32;15.88;;;10.63;;
43710;SDS011;29309;42.682;23.372;2022-07-06T02:25:57;16.77;;;11.07;;
43710;SDS011;29309;42.682;23.372;2022-07-06T02:28:23;13.45;;;10.60;;
43710;SDS011;29309;42.682;23.372;2022-07-06T02:30:48;13.77;;;9.40;;
43710;SDS011;29309;42.682;23.372;2022-07-06T02:33:13;12.70;;;9.15;;
43710;SDS011;29309;42.682;23.372;2022-07-06T02:35:39;12.13;;;8.38;;
43710;SDS011;29309;42.682;23.372;2022-07-06T02:38:08;9.85;;;7.95;;
43710;SDS011;29309;42.682;23.372;2022-07-06T02:40:34;14.57;;;7.93;;
43710;SDS011;29309;42.682;23.372;2022-07-06T02:43:00;13.45;;;9.20;;
43710;SDS011;29309;42.682;23.372;2022-07-06T02:45:25;10.27;;;7.93;;
43710;SDS011;29309;42.682;23.372;2022-07-06T02:47:51;13.25;;;8.10;;
43710;SDS011;29309;42.682;23.372;2022-07-06T02:50:18;15.30;;;8.45;;
43710;SDS011;29309;42.682;23.372;2022-07-06T02:52:43;12.00;;;7.80;;
43710;SDS011;29309;42.682;23.372;2022-07-06T02:55:09;9.27;;;7.15;;
43710;SDS011;29309;42.682;23.372;2022-07-06T02:57:34;8.98;;;7.47;;
43710;SDS011;29309;42.682;23.372;2022-07-06T03:00:00;9.75;;;7.70;;
43710;SDS011;29309;42.682;23.372;2022-07-06T03:02:25;12.68;;;8.85;;
43710;SDS011;29309;42.682;23.372;2022-07-06T03:04:51;12.52;;;8.60;;
43710;SDS011;29309;42.682;23.372;2022-07-06T03:07:16;10.70;;;8.10;;
43710;SDS011;29309;42.682;23.372;2022-07-06T03:09:42;15.05;;;8.27;;
43710;SDS011;29309;42.682;23.372;2022-07-06T03:12:07;11.50;;;8.48;;
43710;SDS011;29309;42.682;23.372;2022-07-06T03:14:33;11.60;;;8.32;;
43710;SDS011;29309;42.682;23.372;2022-07-06T03:16:58;14.48;;;8.93;;
43710;SDS011;29309;42.682;23.372;2022-07-06T03:19:24;11.63;;;8.52;;
43710;SDS011;29309;42.682;23.372;2022-07-06T03:21:49;13.23;;;8.75;;
43710;SDS011;29309;42.682;23.372;2022-07-06T03:24:15;12.52;;;9.13;;
43710;SDS011;29309;42.682;23.372;2022-07-06T03:26:40;11.15;;;8.90;;
43710;SDS011;29309;42.682;23.372;2022-07-06T03:29:06;19.65;;;9.50;;
43710;SDS011;29309;42.682;23.372;2022-07-06T03:31:31;15.88;;;8.95;;
43710;SDS011;29309;42.682;23.372;2022-07-06T03:33:57;11.07;;;8.98;;
43710;SDS011;29309;42.682;23.372;2022-07-06T03:36:22;14.90;;;8.32;;
43710;SDS011;29309;42.682;23.372;2022-07-06T03:38:48;12.55;;;8.43;;
43710;SDS011;29309;42.682;23.372;2022-07-06T03:41:13;10.68;;;7.88;;
43710;SDS011;29309;42.682;23.372;2022-07-06T03:43:39;14.00;;;7.78;;
43710;SDS011;29309;42.682;23.372;2022-07-06T03:46:04;13.05;;;7.97;;
43710;SDS011;29309;42.682;23.372;2022-07-06T03:48:30;12.27;;;8.40;;
43710;SDS011;29309;42.682;23.372;2022-07-06T03:50:55;11.05;;;8.15;;
43710;SDS011;29309;42.682;23.372;2022-07-06T03:53:21;13.85;;;7.88;;
43710;SDS011;29309;42.682;23.372;2022-07-06T03:55:47;11.25;;;8.10;;
43710;SDS011;29309;42.682;23.372;2022-07-06T03:58:32;11.05;;;8.68;;
43710;SDS011;29309;42.682;23.372;2022-07-06T04:00:58;10.25;;;7.93;;
43710;SDS011;29309;42.682;23.372;2022-07-06T04:03:23;10.30;;;8.35;;
43710;SDS011;29309;42.682;23.372;2022-07-06T04:05:49;11.10;;;8.02;;
43710;SDS011;29309;42.682;23.372;2022-07-06T04:08:14;11.38;;;8.32;;
43710;SDS011;29309;42.682;23.372;2022-07-06T04:10:40;12.18;;;8.10;;
43710;SDS011;29309;42.682;23.372;2022-07-06T04:13:05;11.93;;;9.02;;
43710;SDS011;29309;42.682;23.372;2022-07-06T04:15:31;13.13;;;8.27;;
43710;SDS011;29309;42.682;23.372;2022-07-06T04:17:56;11.38;;;7.55;;
43710;SDS011;29309;42.682;23.372;2022-07-06T04:20:22;10.48;;;7.20;;
43710;SDS011;29309;42.682;23.372;2022-07-06T04:22:49;8.75;;;6.65;;
43710;SDS011;29309;42.682;23.372;2022-07-06T04:25:15;13.27;;;6.88;;
43710;SDS011;29309;42.682;23.372;2022-07-06T04:27:41;9.32;;;5.78;;
43710;SDS011;29309;42.682;23.372;2022-07-06T04:30:07;10.65;;;6.32;;
43710;SDS011;29309;42.682;23.372;2022-07-06T04:32:34;7.35;;;5.25;;
43710;SDS011;29309;42.682;23.372;2022-07-06T04:35:00;11.13;;;5.47;;
43710;SDS011;29309;42.682;23.372;2022-07-06T04:37:26;9.52;;;4.40;;
43710;SDS011;29309;42.682;23.372;2022-07-06T04:39:52;8.00;;;4.22;;
43710;SDS011;29309;42.682;23.372;2022-07-06T04:42:17;6.88;;;4.97;;
43710;SDS011;29309;42.682;23.372;2022-07-06T04:44:43;9.00;;;4.55;;
43710;SDS011;29309;42.682;23.372;2022-07-06T04:47:09;7.50;;;4.70;;
43710;SDS011;29309;42.682;23.372;2022-07-06T04:49:34;8.07;;;4.65;;
43710;SDS011;29309;42.682;23.372;2022-07-06T04:51:59;8.32;;;4.93;;
43710;SDS011;29309;42.682;23.372;2022-07-06T04:54:25;8.88;;;4.90;;
43710;SDS011;29309;42.682;23.372;2022-07-06T04:56:50;10.05;;;5.72;;
43710;SDS011;29309;42.682;23.372;2022-07-06T04:59:17;7.22;;;5.07;;
43710;SDS011;29309;42.682;23.372;2022-07-06T05:01:42;10.23;;;6.05;;
43710;SDS011;29309;42.682;23.372;2022-07-06T05:04:08;9.18;;;5.70;;
43710;SDS011;29309;42.682;23.372;2022-07-06T05:06:33;9.63;;;6.88;;
43710;SDS011;29309;42.682;23.372;2022-07-06T05:08:59;10.73;;;6.15;;
43710;SDS011;29309;42.682;23.372;2022-07-06T05:11:25;11.98;;;7.57;;
43710;SDS011;29309;42.682;23.372;2022-07-06T05:13:51;13.32;;;6.38;;
43710;SDS011;29309;42.682;23.372;2022-07-06T05:16:17;10.15;;;6.57;;
43710;SDS011;29309;42.682;23.372;2022-07-06T05:18:42;10.70;;;7.13;;
43710;SDS011;29309;42.682;23.372;2022-07-06T05:21:10;13.02;;;7.55;;
43710;SDS011;29309;42.682;23.372;2022-07-06T05:23:36;11.38;;;7.65;;
43710;SDS011;29309;42.682;23.372;2022-07-06T05:26:01;11.80;;;8.32;;
43710;SDS011;29309;42.682;23.372;2022-07-06T05:28:27;11.60;;;8.13;;
43710;SDS011;29309;42.682;23.372;2022-07-06T05:30:53;12.73;;;8.10;;
43710;SDS011;29309;42.682;23.372;2022-07-06T05:33:18;11.02;;;8.75;;
43710;SDS011;29309;42.682;23.372;2022-07-06T05:35:44;16.58;;;8.25;;
43710;SDS011;29309;42.682;23.372;2022-07-06T05:38:10;12.30;;;8.07;;
43710;SDS011;29309;42.682;23.372;2022-07-06T05:40:35;12.68;;;7.85;;
43710;SDS011;29309;42.682;23.372;2022-07-06T05:43:01;13.05;;;9.10;;
43710;SDS011;29309;42.682;23.372;2022-07-06T05:45:28;14.02;;;8.25;;
43710;SDS011;29309;42.682;23.372;2022-07-06T05:47:53;9.15;;;7.80;;
43710;SDS011;29309;42.682;23.372;2022-07-06T05:50:37;9.65;;;7.38;;
43710;SDS011;29309;42.682;23.372;2022-07-06T05:53:03;12.90;;;8.13;;
43710;SDS011;29309;42.682;23.372;2022-07-06T05:55:38;13.73;;;7.35;;
43710;SDS011;29309;42.682;23.372;2022-07-06T05:58:03;12.13;;;8.73;;
43710;SDS011;29309;42.682;23.372;2022-07-06T06:00:29;11.73;;;7.50;;
43710;SDS011;29309;42.682;23.372;2022-07-06T06:02:55;11.65;;;7.72;;
43710;SDS011;29309;42.682;23.372;2022-07-06T06:05:21;15.07;;;7.70;;
43710;SDS011;29309;42.682;23.372;2022-07-06T06:07:47;10.48;;;6.50;;
43710;SDS011;29309;42.682;23.372;2022-07-06T06:10:14;14.90;;;7.50;;
43710;SDS011;29309;42.682;23.372;2022-07-06T06:12:40;12.80;;;7.85;;
43710;SDS011;29309;42.682;23.372;2022-07-06T06:15:06;10.85;;;7.53;;
43710;SDS011;29309;42.682;23.372;2022-07-06T06:17:33;14.18;;;7.93;;
43710;SDS011;29309;42.682;23.372;2022-07-06T06:20:00;13.98;;;7.70;;
43710;SDS011;29309;42.682;23.372;2022-07-06T06:22:26;12.57;;;6.97;;
43710;SDS011;29309;42.682;23.372;2022-07-06T06:24:51;11.80;;;7.60;;
43710;SDS011;29309;42.682;23.372;2022-07-06T06:27:17;20.50;;;8.18;;
43710;SDS011;29309;42.682;23.372;2022-07-06T06:29:43;10.73;;;7.63;;
43710;SDS011;29309;42.682;23.372;2022-07-06T06:32:12;14.02;;;8.77;;
43710;SDS011;29309;42.682;23.372;2022-07-06T06:34:41;15.75;;;8.10;;
43710;SDS011;29309;42.682;23.372;2022-07-06T06:37:07;13.45;;;8.00;;
43710;SDS011;29309;42.682;23.372;2022-07-06T06:39:32;11.52;;;7.90;;
43710;SDS011;29309;42.682;23.372;2022-07-06T06:41:58;10.73;;;7.18;;
43710;SDS011;29309;42.682;23.372;2022-07-06T06:44:23;10.95;;;7.93;;
43710;SDS011;29309;42.682;23.372;2022-07-06T06:46:49;12.07;;;8.00;;
43710;SDS011;29309;42.682;23.372;2022-07-06T06:49:17;15.32;;;8.15;;
43710;SDS011;29309;42.682;23.372;2022-07-06T06:51:43;11.48;;;7.43;;
43710;SDS011;29309;42.682;23.372;2022-07-06T06:54:08;13.75;;;8.43;;
43710;SDS011;29309;42.682;23.372;2022-07-06T06:56:34;12.95;;;7.45;;
43710;SDS011;29309;42.682;23.372;2022-07-06T06:58:59;10.40;;;7.63;;
43710;SDS011;29309;42.682;23.372;2022-07-06T07:01:26;12.93;;;7.70;;
43710;SDS011;29309;42.682;23.372;2022-07-06T07:03:52;13.07;;;7.10;;
43710;SDS011;29309;42.682;23.372;2022-07-06T07:06:20;11.50;;;7.00;;
43710;SDS011;29309;42.682;23.372;2022-07-06T07:08:46;10.75;;;7.05;;
43710;SDS011;29309;42.682;23.372;2022-07-06T07:11:11;10.88;;;7.50;;
43710;SDS011;29309;42.682;23.372;2022-07-06T07:13:38;10.65;;;6.80;;
43710;SDS011;29309;42.682;23.372;2022-07-06T07:16:03;8.25;;;6.72;;
43710;SDS011;29309;42.682;23.372;2022-07-06T07:18:29;8.85;;;6.65;;
43710;SDS011;29309;42.682;23.372;2022-07-06T07:20:55;7.85;;;6.65;;
43710;SDS011;29309;42.682;23.372;2022-07-06T07:23:20;10.63;;;7.05;;
43710;SDS011;29309;42.682;23.372;2022-07-06T07:25:46;9.77;;;7.22;;
43710;SDS011;29309;42.682;23.372;2022-07-06T07:28:11;12.25;;;7.18;;
43710;SDS011;29309;42.682;23.372;2022-07-06T07:30:37;9.43;;;7.75;;
43710;SDS011;29309;42.682;23.372;2022-07-06T07:33:02;8.18;;;7.13;;
43710;SDS011;29309;42.682;23.372;2022-07-06T07:35:28;9.27;;;7.75;;
43710;SDS011;29309;42.682;23.372;2022-07-06T07:37:53;15.13;;;7.82;;
43710;SDS011;29309;42.682;23.372;2022-07-06T07:40:19;11.40;;;7.97;;
43710;SDS011;29309;42.682;23.372;2022-07-06T07:42:44;11.77;;;8.80;;
43710;SDS011;29309;42.682;23.372;2022-07-06T07:45:10;9.30;;;8.13;;
43710;SDS011;29309;42.682;23.372;2022-07-06T07:47:37;12.32;;;8.52;;
43710;SDS011;29309;42.682;23.372;2022-07-06T07:50:03;10.95;;;8.05;;
43710;SDS011;29309;42.682;23.372;2022-07-06T07:52:29;11.38;;;8.13;;
43710;SDS011;29309;42.682;23.372;2022-07-06T07:54:55;10.43;;;7.72;;
43710;SDS011;29309;42.682;23.372;2022-07-06T07:57:20;9.85;;;7.53;;
43710;SDS011;29309;42.682;23.372;2022-07-06T07:59:46;11.95;;;8.00;;
43710;SDS011;29309;42.682;23.372;2022-07-06T08:02:11;8.75;;;7.43;;
43710;SDS011;29309;42.682;23.372;2022-07-06T08:04:37;10.18;;;8.18;;
43710;SDS011;29309;42.682;23.372;2022-07-06T08:07:02;9.57;;;7.70;;
43710;SDS011;29309;42.682;23.372;2022-07-06T08:09:28;7.80;;;7.00;;
43710;SDS011;29309;42.682;23.372;2022-07-06T08:11:53;12.35;;;7.25;;
43710;SDS011;29309;42.682;23.372;2022-07-06T08:14:19;10.48;;;7.40;;
43710;SDS011;29309;42.682;23.372;2022-07-06T08:16:44;10.23;;;6.65;;
43710;SDS011;29309;42.682;23.372;2022-07-06T08:19:10;11.77;;;6.47;;
43710;SDS011;29309;42.682;23.372;2022-07-06T08:21:40;8.85;;;6.15;;
43710;SDS011;29309;42.682;23.372;2022-07-06T08:24:05;8.05;;;6.65;;
43710;SDS011;29309;42.682;23.372;2022-07-06T08:26:32;8.43;;;7.38;;
43710;SDS011;29309;42.682;23.372;2022-07-06T08:28:57;10.30;;;7.95;;
43710;SDS011;29309;42.682;23.372;2022-07-06T08:31:23;11.80;;;7.90;;
43710;SDS011;29309;42.682;23.372;2022-07-06T08:33:48;10.73;;;7.25;;
43710;SDS011;29309;42.682;23.372;2022-07-06T08:36:14;10.73;;;7.20;;
43710;SDS011;29309;42.682;23.372;2022-07-06T08:38:39;11.32;;;7.30;;
43710;SDS011;29309;42.682;23.372;2022-07-06T08:41:05;9.88;;;6.63;;
43710;SDS011;29309;42.682;23.372;2022-07-06T08:43:32;8.30;;;6.50;;
43710;SDS011;29309;42.682;23.372;2022-07-06T08:45:59;9.10;;;6.97;;
43710;SDS011;29309;42.682;23.372;2022-07-06T08:48:26;9.95;;;6.75;;
43710;SDS011;29309;42.682;23.372;2022-07-06T08:50:56;8.45;;;6.63;;
43710;SDS011;29309;42.682;23.372;2022-07-06T08:53:23;9.65;;;7.18;;
43710;SDS011;29309;42.682;23.372;2022-07-06T08:55:49;8.57;;;6.82;;
43710;SDS011;29309;42.682;23.372;2022-07-06T08:58:15;9.10;;;6.60;;
43710;SDS011;29309;42.682;23.372;2022-07-06T09:00:41;8.85;;;7.10;;
43710;SDS011;29309;42.682;23.372;2022-07-06T09:03:07;14.18;;;7.43;;
43710;SDS011;29309;42.682;23.372;2022-07-06T09:05:36;8.35;;;7.18;;
43710;SDS011;29309;42.682;23.372;2022-07-06T09:08:02;9.60;;;7.43;;
43710;SDS011;29309;42.682;23.372;2022-07-06T09:10:28;10.10;;;7.38;;
43710;SDS011;29309;42.682;23.372;2022-07-06T09:13:01;9.55;;;7.07;;
43710;SDS011;29309;42.682;23.372;2022-07-06T09:15:28;13.07;;;7.50;;
43710;SDS011;29309;42.682;23.372;2022-07-06T09:17:55;14.02;;;7.40;;
43710;SDS011;29309;42.682;23.372;2022-07-06T09:20:21;10.65;;;7.40;;
43710;SDS011;29309;42.682;23.372;2022-07-06T09:22:46;9.95;;;7.43;;
43710;SDS011;29309;42.682;23.372;2022-07-06T09:25:13;9.48;;;7.20;;
43710;SDS011;29309;42.682;23.372;2022-07-06T09:27:40;10.70;;;7.85;;
43710;SDS011;29309;42.682;23.372;2022-07-06T09:30:10;13.93;;;7.93;;
43710;SDS011;29309;42.682;23.372;2022-07-06T09:35:05;9.57;;;7.70;;
43710;SDS011;29309;42.682;23.372;2022-07-06T09:37:31;11.77;;;7.95;;
43710;SDS011;29309;42.682;23.372;2022-07-06T09:39:57;10.15;;;7.80;;
43710;SDS011;29309;42.682;23.372;2022-07-06T09:42:26;9.00;;;7.72;;
43710;SDS011;29309;42.682;23.372;2022-07-06T09:44:52;16.23;;;10.88;;
43710;SDS011;29309;42.682;23.372;2022-07-06T09:47:20;15.25;;;9.07;;
43710;SDS011;29309;42.682;23.372;2022-07-06T09:49:45;11.75;;;8.32;;
43710;SDS011;29309;42.682;23.372;2022-07-06T09:52:14;10.75;;;8.38;;
43710;SDS011;29309;42.682;23.372;2022-07-06T09:54:40;10.15;;;8.15;;
43710;SDS011;29309;42.682;23.372;2022-07-06T09:57:06;12.23;;;7.75;;
43710;SDS011;29309;42.682;23.372;2022-07-06T09:59:33;9.13;;;7.78;;
43710;SDS011;29309;42.682;23.372;2022-07-06T10:02:04;11.65;;;9.25;;
43710;SDS011;29309;42.682;23.372;2022-07-06T10:04:31;10.43;;;8.50;;
43710;SDS011;29309;42.682;23.372;2022-07-06T10:06:57;12.43;;;9.63;;
43710;SDS011;29309;42.682;23.372;2022-07-06T10:09:24;12.82;;;9.13;;
43710;SDS011;29309;42.682;23.372;2022-07-06T10:11:53;11.88;;;9.23;;
43710;SDS011;29309;42.682;23.372;2022-07-06T10:14:21;13.38;;;9.23;;
43710;SDS011;29309;42.682;23.372;2022-07-06T10:16:51;17.08;;;9.68;;
43710;SDS011;29309;42.682;23.372;2022-07-06T10:19:18;11.65;;;9.23;;
43710;SDS011;29309;42.682;23.372;2022-07-06T10:21:51;12.98;;;9.63;;
43710;SDS011;29309;42.682;23.372;2022-07-06T10:24:18;12.60;;;9.35;;
43710;SDS011;29309;42.682;23.372;2022-07-06T10:26:44;13.07;;;9.45;;
43710;SDS011;29309;42.682;23.372;2022-07-06T10:29:11;11.13;;;9.73;;
43710;SDS011;29309;42.682;23.372;2022-07-06T10:31:38;11.82;;;9.45;;
43710;SDS011;29309;42.682;23.372;2022-07-06T10:34:06;12.32;;;9.07;;
43710;SDS011;29309;42.682;23.372;2022-07-06T10:36:42;12.00;;;9.05;;
43710;SDS011;29309;42.682;23.372;2022-07-06T10:39:09;12.25;;;9.52;;
43710;SDS011;29309;42.682;23.372;2022-07-06T10:41:54;10.80;;;9.43;;
43710;SDS011;29309;42.682;23.372;2022-07-06T10:44:20;14.63;;;9.38;;
43710;SDS011;29309;42.682;23.372;2022-07-06T10:46:54;13.60;;;9.43;;
43710;SDS011;29309;42.682;23.372;2022-07-06T10:49:21;11.95;;;9.43;;
43710;SDS011;29309;42.682;23.372;2022-07-06T10:51:48;14.30;;;9.32;;
43710;SDS011;29309;42.682;23.372;2022-07-06T10:54:15;12.20;;;8.82;;
43710;SDS011;29309;42.682;23.372;2022-07-06T10:56:43;9.82;;;8.73;;
43710;SDS011;29309;42.682;23.372;2022-07-06T10:59:16;11.20;;;9.05;;
43710;SDS011;29309;42.682;23.372;2022-07-06T11:04:37;12.70;;;9.75;;
43710;SDS011;29309;42.682;23.372;2022-07-06T11:07:10;11.70;;;9.85;;
43710;SDS011;29309;42.682;23.372;2022-07-06T11:09:37;11.57;;;10.00;;
43710;SDS011;29309;42.682;23.372;2022-07-06T11:12:18;10.77;;;9.40;;
43710;SDS011;29309;42.682;23.372;2022-07-06T11:14:45;16.50;;;10.13;;
43710;SDS011;29309;42.682;23.372;2022-07-06T11:17:13;11.68;;;10.35;;
43710;SDS011;29309;42.682;23.372;2022-07-06T11:19:39;15.00;;;10.25;;
43710;SDS011;29309;42.682;23.372;2022-07-06T11:22:15;10.88;;;9.77;;
43710;SDS011;29309;42.682;23.372;2022-07-06T11:24:41;17.08;;;10.27;;
43710;SDS011;29309;42.682;23.372;2022-07-06T11:27:07;13.18;;;10.43;;
43710;SDS011;29309;42.682;23.372;2022-07-06T11:29:34;12.82;;;10.38;;
43710;SDS011;29309;42.682;23.372;2022-07-06T11:32:02;13.23;;;11.02;;
43710;SDS011;29309;42.682;23.372;2022-07-06T11:34:30;14.07;;;10.35;;
43710;SDS011;29309;42.682;23.372;2022-07-06T11:36:59;13.45;;;10.68;;
43710;SDS011;29309;42.682;23.372;2022-07-06T11:39:29;11.93;;;10.35;;
43710;SDS011;29309;42.682;23.372;2022-07-06T11:41:57;12.82;;;10.75;;
43710;SDS011;29309;42.682;23.372;2022-07-06T11:44:23;16.23;;;10.57;;
43710;SDS011;29309;42.682;23.372;2022-07-06T11:46:49;14.68;;;10.50;;
43710;SDS011;29309;42.682;23.372;2022-07-06T11:49:15;12.77;;;10.20;;
43710;SDS011;29309;42.682;23.372;2022-07-06T11:51:42;15.07;;;10.63;;
43710;SDS011;29309;42.682;23.372;2022-07-06T11:54:09;11.05;;;9.82;;
43710;SDS011;29309;42.682;23.372;2022-07-06T11:56:38;13.18;;;10.18;;
43710;SDS011;29309;42.682;23.372;2022-07-06T11:59:11;10.60;;;9.43;;
43710;SDS011;29309;42.682;23.372;2022-07-06T12:01:37;11.10;;;9.95;;
43710;SDS011;29309;42.682;23.372;2022-07-06T12:04:07;12.77;;;10.65;;
43710;SDS011;29309;42.682;23.372;2022-07-06T12:06:32;18.83;;;11.02;;
43710;SDS011;29309;42.682;23.372;2022-07-06T12:08:59;12.68;;;9.90;;
43710;SDS011;29309;42.682;23.372;2022-07-06T12:11:30;13.07;;;11.70;;
43710;SDS011;29309;42.682;23.372;2022-07-06T12:13:57;12.32;;;10.85;;
43710;SDS011;29309;42.682;23.372;2022-07-06T12:16:35;54.75;;;13.77;;
43710;SDS011;29309;42.682;23.372;2022-07-06T12:19:04;18.33;;;10.18;;
43710;SDS011;29309;42.682;23.372;2022-07-06T12:21:32;14.02;;;9.75;;
43710;SDS011;29309;42.682;23.372;2022-07-06T12:25:28;20.17;;;9.82;;
43710;SDS011;29309;42.682;23.372;2022-07-06T12:27:57;14.73;;;8.52;;
43710;SDS011;29309;42.682;23.372;2022-07-06T12:30:22;8.63;;;7.68;;
43710;SDS011;29309;42.682;23.372;2022-07-06T12:33:09;12.48;;;9.25;;
43710;SDS011;29309;42.682;23.372;2022-07-06T12:35:40;11.75;;;9.73;;
43710;SDS011;29309;42.682;23.372;2022-07-06T12:38:07;10.50;;;8.38;;
43710;SDS011;29309;42.682;23.372;2022-07-06T12:40:35;8.70;;;7.80;;
43710;SDS011;29309;42.682;23.372;2022-07-06T12:43:01;8.63;;;7.63;;
43710;SDS011;29309;42.682;23.372;2022-07-06T12:45:28;11.18;;;8.15;;
43710;SDS011;29309;42.682;23.372;2022-07-06T12:47:58;9.02;;;7.95;;
43710;SDS011;29309;42.682;23.372;2022-07-06T12:50:34;10.23;;;7.53;;
43710;SDS011;29309;42.682;23.372;2022-07-06T12:53:02;9.77;;;7.30;;
43710;SDS011;29309;42.682;23.372;2022-07-06T12:55:29;13.82;;;7.55;;
43710;SDS011;29309;42.682;23.372;2022-07-06T12:57:55;9.50;;;7.45;;
43710;SDS011;29309;42.682;23.372;2022-07-06T13:00:22;9.70;;;7.45;;
43710;SDS011;29309;42.682;23.372;2022-07-06T13:02:49;8.07;;;6.90;;
43710;SDS011;29309;42.682;23.372;2022-07-06T13:05:23;10.88;;;7.95;;
43710;SDS011;29309;42.682;23.372;2022-07-06T13:07:53;7.60;;;6.80;;
43710;SDS011;29309;42.682;23.372;2022-07-06T13:10:20;7.55;;;6.57;;
43710;SDS011;29309;42.682;23.372;2022-07-06T13:12:46;7.57;;;6.53;;
43710;SDS011;29309;42.682;23.372;2022-07-06T13:15:12;7.93;;;6.43;;
43710;SDS011;29309;42.682;23.372;2022-07-06T13:17:37;10.85;;;7.38;;
43710;SDS011;29309;42.682;23.372;2022-07-06T13:20:07;6.20;;;5.60;;
43710;SDS011;29309;42.682;23.372;2022-07-06T13:22:34;6.22;;;5.20;;
43710;SDS011;29309;42.682;23.372;2022-07-06T13:25:00;6.05;;;5.45;;
43710;SDS011;29309;42.682;23.372;2022-07-06T13:27:25;4.88;;;4.32;;
43710;SDS011;29309;42.682;23.372;2022-07-06T13:29:51;5.85;;;4.80;;
43710;SDS011;29309;42.682;23.372;2022-07-06T13:32:17;15.95;;;5.05;;
43710;SDS011;29309;42.682;23.372;2022-07-06T13:34:42;12.68;;;4.70;;
43710;SDS011;29309;42.682;23.372;2022-07-06T13:37:07;8.45;;;4.18;;
43710;SDS011;29309;42.682;23.372;2022-07-06T13:39:33;4.57;;;4.07;;
43710;SDS011;29309;42.682;23.372;2022-07-06T13:41:59;5.95;;;5.03;;
43710;SDS011;29309;42.682;23.372;2022-07-06T13:44:24;4.95;;;4.45;;
43710;SDS011;29309;42.682;23.372;2022-07-06T13:46:50;3.95;;;3.35;;
43710;SDS011;29309;42.682;23.372;2022-07-06T13:49:16;4.97;;;3.00;;
43710;SDS011;29309;42.682;23.372;2022-07-06T13:51:42;5.95;;;3.00;;
43710;SDS011;29309;42.682;23.372;2022-07-06T13:54:08;3.60;;;2.67;;
43710;SDS011;29309;42.682;23.372;2022-07-06T13:56:34;3.33;;;2.58;;
43710;SDS011;29309;42.682;23.372;2022-07-06T13:59:00;11.55;;;2.80;;
43710;SDS011;29309;42.682;23.372;2022-07-06T14:01:25;4.57;;;3.15;;
43710;SDS011;29309;42.682;23.372;2022-07-06T14:03:51;3.42;;;3.13;;
43710;SDS011;29309;42.682;23.372;2022-07-06T14:06:18;4.88;;;2.85;;
43710;SDS011;29309;42.682;23.372;2022-07-06T14:08:44;3.20;;;2.90;;
43710;SDS011;29309;42.682;23.372;2022-07-06T14:11:09;3.95;;;2.88;;
43710;SDS011;29309;42.682;23.372;2022-07-06T14:13:36;5.07;;;2.50;;
43710;SDS011;29309;42.682;23.372;2022-07-06T14:16:03;3.53;;;2.72;;
43710;SDS011;29309;42.682;23.372;2022-07-06T14:18:29;2.55;;;2.35;;
43710;SDS011;29309;42.682;23.372;2022-07-06T14:20:55;6.03;;;3.20;;
43710;SDS011;29309;42.682;23.372;2022-07-06T14:23:21;2.58;;;2.38;;
43710;SDS011;29309;42.682;23.372;2022-07-06T14:25:47;6.68;;;4.47;;
43710;SDS011;29309;42.682;23.372;2022-07-06T14:28:13;3.63;;;2.53;;